createdAt,value
2023-02-11T00:00:41.828Z,101609.59
2023-02-11T00:03:11.278Z,101611.59
2023-02-11T00:05:39.309Z,101609.41
2023-02-11T00:08:07.354Z,101605.25
2023-02-11T00:10:35.340Z,101600.00
2023-02-11T00:13:03.430Z,101611.44
2023-02-11T00:15:31.564Z,101607.41
2023-02-11T00:17:59.537Z,101609.06
2023-02-11T00:20:28.908Z,101606.38
2023-02-11T00:22:56.941Z,101591.28
2023-02-11T00:25:25.210Z,101606.28
2023-02-11T00:27:53.168Z,101600.09
2023-02-11T00:30:21.290Z,101591.28
2023-02-11T00:32:49.256Z,101595.50
2023-02-11T00:35:17.706Z,101589.13
2023-02-11T00:37:47.117Z,101588.13
2023-02-11T00:40:16.105Z,101581.19
2023-02-11T00:42:44.180Z,101581.13
2023-02-11T00:45:12.309Z,101586.56
2023-02-11T00:47:40.490Z,101580.38
2023-02-11T00:50:08.617Z,101580.72
2023-02-11T00:52:36.654Z,101546.38
2023-02-11T00:55:06.514Z,101577.28
2023-02-11T00:57:34.490Z,101572.22
2023-02-11T01:00:02.448Z,101572.16
2023-02-11T01:02:30.513Z,101572.38
2023-02-11T01:04:59.835Z,101566.19
2023-02-11T01:07:28.042Z,101566.97
2023-02-11T01:09:56.036Z,101570.59
2023-02-11T01:12:25.743Z,101566.19
2023-02-11T01:14:53.707Z,101558.47
2023-02-11T01:17:21.641Z,101558.50
2023-02-11T01:19:49.671Z,101564.59
2023-02-11T01:22:17.675Z,101560.22
2023-02-11T01:24:46.304Z,101551.78
2023-02-11T01:27:14.236Z,101557.97
2023-02-11T01:29:43.560Z,101559.78
2023-02-11T01:32:11.668Z,101565.16
2023-02-11T01:34:39.797Z,101555.66
2023-02-11T01:37:07.946Z,101554.91
2023-02-11T01:39:36.492Z,101550.59
2023-02-11T01:42:04.881Z,101549.66
2023-02-11T01:44:34.994Z,101546.09
2023-02-11T01:47:04.901Z,101546.19
2023-02-11T01:49:35.288Z,101546.16
2023-02-11T01:52:07.000Z,101554.25
2023-02-11T01:54:56.516Z,101558.53
2023-02-11T01:57:27.422Z,101558.88
2023-02-11T02:00:04.791Z,101552.78
2023-02-11T02:02:44.917Z,101546.56
2023-02-11T02:05:24.231Z,101545.66
2023-02-11T02:08:00.020Z,101536.34
2023-02-11T02:10:29.987Z,101541.53
2023-02-11T02:12:58.259Z,101539.72
2023-02-11T02:15:29.846Z,101533.19
2023-02-11T02:18:10.208Z,101537.72
2023-02-11T02:21:09.089Z,101541.84
2023-02-11T02:23:52.810Z,101533.09
2023-02-11T02:27:02.653Z,101532.47
2023-02-11T02:30:11.942Z,101527.00
2023-02-11T02:33:21.414Z,101530.34
2023-02-11T02:35:59.609Z,101526.09
2023-02-11T02:38:32.709Z,101522.72
2023-02-11T02:41:05.268Z,101515.00
2023-02-11T02:43:35.331Z,101514.16
2023-02-11T02:46:14.832Z,101511.44
2023-02-11T02:48:45.443Z,101502.88
2023-02-11T02:51:28.925Z,101505.31
2023-02-11T02:54:13.532Z,101501.72
2023-02-11T02:56:47.793Z,101509.75
2023-02-11T02:59:29.889Z,101495.13
2023-02-11T03:02:07.643Z,101495.19
2023-02-11T03:04:45.469Z,101493.94
2023-02-11T03:07:24.051Z,101495.63
2023-02-11T03:09:59.604Z,101496.41
2023-02-11T03:12:31.185Z,101500.09
2023-02-11T03:15:02.520Z,101494.56
2023-02-11T03:17:33.047Z,101492.84
2023-02-11T03:20:04.703Z,101495.50
2023-02-11T03:22:38.730Z,101494.47
2023-02-11T03:25:07.541Z,101498.09
2023-02-11T03:27:42.601Z,101487.88
2023-02-11T03:30:17.528Z,101480.94
2023-02-11T03:32:52.376Z,101485.34
2023-02-11T03:35:25.632Z,101481.28
2023-02-11T03:37:57.739Z,101485.75
2023-02-11T03:40:29.044Z,101490.13
2023-02-11T03:43:00.666Z,101476.94
2023-02-11T03:45:29.765Z,101482.13
2023-02-11T03:48:05.953Z,101482.72
2023-02-11T03:50:37.413Z,101478.16
2023-02-11T03:53:06.617Z,101474.44
2023-02-11T03:55:38.007Z,101476.75
2023-02-11T03:58:06.047Z,101470.56
2023-02-11T04:00:35.249Z,101472.38
2023-02-11T04:03:03.661Z,101466.28
2023-02-11T04:05:31.923Z,101474.31
2023-02-11T04:08:01.353Z,101476.34
2023-02-11T04:10:29.501Z,101474.53
2023-02-11T04:12:57.466Z,101473.63
2023-02-11T04:15:25.652Z,101469.16
2023-02-11T04:17:53.670Z,101475.28
2023-02-11T04:20:21.827Z,101476.16
2023-02-11T04:22:49.835Z,101477.28
2023-02-11T04:25:19.244Z,101476.38
2023-02-11T04:27:47.165Z,101476.47
2023-02-11T04:30:15.428Z,101478.91
2023-02-11T04:32:43.529Z,101472.78
2023-02-11T04:35:11.582Z,101477.41
2023-02-11T04:37:39.569Z,101479.22
2023-02-11T04:40:08.762Z,101475.75
2023-02-11T04:42:38.092Z,101472.84
2023-02-11T04:45:07.263Z,101477.25
2023-02-11T04:47:36.223Z,101458.13
2023-02-11T04:50:04.218Z,101464.94
2023-02-11T04:52:32.244Z,101464.38
2023-02-11T04:55:00.218Z,101461.53
2023-02-11T04:57:28.161Z,101454.81
2023-02-11T04:59:57.482Z,101456.31
2023-02-11T05:02:25.536Z,101457.34
2023-02-11T05:04:53.487Z,101452.78
2023-02-11T05:07:21.512Z,101452.53
2023-02-11T05:09:49.448Z,101453.53
2023-02-11T05:12:17.416Z,101447.41
2023-02-11T05:14:45.442Z,101445.75
2023-02-11T05:17:14.853Z,101443.97
2023-02-11T05:19:43.024Z,101450.16
2023-02-11T05:22:11.010Z,101445.66
2023-02-11T05:24:39.106Z,101446.69
2023-02-11T05:27:07.049Z,101445.75
2023-02-11T05:29:34.976Z,101438.00
2023-02-11T05:32:02.979Z,101444.09
2023-02-11T05:34:32.378Z,101444.94
2023-02-11T05:37:00.507Z,101446.59
2023-02-11T05:39:28.634Z,101447.75
2023-02-11T05:41:56.715Z,101443.25
2023-02-11T05:44:24.738Z,101445.94
2023-02-11T05:46:52.753Z,101436.34
2023-02-11T05:49:20.993Z,101435.53
2023-02-11T05:51:50.426Z,101433.88
2023-02-11T05:54:18.405Z,101429.59
2023-02-11T05:56:46.484Z,101432.31
2023-02-11T05:59:15.412Z,101426.38
2023-02-11T06:01:43.445Z,101430.66
2023-02-11T06:04:11.450Z,101433.28
2023-02-11T06:06:39.504Z,101437.69
2023-02-11T06:09:08.882Z,101435.94
2023-02-11T06:11:36.832Z,101433.72
2023-02-11T06:14:05.107Z,101432.63
2023-02-11T06:16:33.040Z,101435.22
2023-02-11T06:19:00.967Z,101439.50
2023-02-11T06:21:43.013Z,101440.50
2023-02-11T06:24:13.520Z,101444.94
2023-02-11T06:26:41.644Z,101446.47
2023-02-11T06:29:09.934Z,101448.28
2023-02-11T06:31:39.103Z,101447.56
2023-02-11T06:34:07.341Z,101445.88
2023-02-11T06:36:35.395Z,101448.81
2023-02-11T06:39:03.409Z,101446.22
2023-02-11T06:41:32.858Z,101445.28
2023-02-11T06:44:00.789Z,101449.25
2023-02-11T06:46:28.834Z,101451.75
2023-02-11T06:48:57.198Z,101448.41
2023-02-11T06:51:25.517Z,101457.94
2023-02-11T06:53:53.520Z,101449.53
2023-02-11T06:56:23.368Z,101449.50
2023-02-11T06:58:55.971Z,101444.91
2023-02-11T07:01:25.434Z,101443.34
2023-02-11T07:03:53.914Z,101444.22
2023-02-11T07:06:23.883Z,101451.38
2023-02-11T07:08:51.870Z,101438.97
2023-02-11T07:11:24.388Z,101447.75
2023-02-11T07:13:54.565Z,101450.13
2023-02-11T07:16:22.807Z,101444.09
2023-02-11T07:18:51.077Z,101438.75
2023-02-11T07:21:21.442Z,101438.63
2023-02-11T07:23:49.778Z,101440.66
2023-02-11T07:26:20.020Z,101444.19
2023-02-11T07:28:48.147Z,101445.19
2023-02-11T07:31:19.736Z,101432.53
2023-02-11T07:33:48.143Z,101445.22
2023-02-11T07:36:17.848Z,101438.81
2023-02-11T07:38:46.015Z,101432.53
2023-02-11T07:41:15.890Z,101435.97
2023-02-11T07:43:44.171Z,101442.59
2023-02-11T07:46:14.744Z,101438.78
2023-02-11T07:48:44.205Z,101442.78
2023-02-11T07:51:14.437Z,101443.28
2023-02-11T07:53:42.481Z,101442.13
2023-02-11T07:56:11.537Z,101448.78
2023-02-11T07:58:42.170Z,101449.28
2023-02-11T08:01:12.226Z,101442.75
2023-02-11T08:03:42.941Z,101445.94
2023-02-11T08:06:14.137Z,101450.97
2023-02-11T08:08:42.910Z,101450.47
2023-02-11T08:11:12.838Z,101451.28
2023-02-11T08:13:41.012Z,101449.25
2023-02-11T08:16:10.044Z,101452.47
2023-02-11T08:18:38.046Z,101454.41
2023-02-11T08:21:07.709Z,101462.09
2023-02-11T08:23:37.476Z,101463.69
2023-02-11T08:26:07.238Z,101460.63
2023-02-11T08:28:37.066Z,101453.31
2023-02-11T08:31:07.640Z,101454.59
2023-02-11T08:33:36.030Z,101459.13
2023-02-11T08:36:09.806Z,101459.28
2023-02-11T08:38:39.499Z,101457.44
2023-02-11T08:41:07.984Z,101455.13
2023-02-11T08:43:36.031Z,101445.81
2023-02-11T08:46:04.666Z,101452.69
2023-02-11T08:48:32.661Z,101442.47
2023-02-11T08:51:00.822Z,101444.00
2023-02-11T08:53:28.794Z,101449.81
2023-02-11T08:55:58.307Z,101445.53
2023-02-11T08:58:26.244Z,101447.66
2023-02-11T09:00:54.434Z,101445.03
2023-02-11T09:03:22.593Z,101443.38
2023-02-11T09:05:53.473Z,101446.03
2023-02-11T09:08:22.139Z,101447.16
2023-02-11T09:10:50.355Z,101439.00
2023-02-11T09:13:19.921Z,101437.41
2023-02-11T09:15:48.010Z,101424.72
2023-02-11T09:18:16.030Z,101428.13
2023-02-11T09:20:44.000Z,101428.00
2023-02-11T09:23:12.727Z,101431.00
2023-02-11T09:25:41.219Z,101429.69
2023-02-11T09:28:09.816Z,101430.00
2023-02-11T09:30:40.010Z,101421.13
2023-02-11T09:33:08.074Z,101430.50
2023-02-11T09:35:36.022Z,101427.81
2023-02-11T09:38:04.194Z,101431.59
2023-02-11T09:40:32.346Z,101426.13
2023-02-11T09:43:05.365Z,101425.38
2023-02-11T09:45:33.713Z,101423.03
2023-02-11T09:48:06.795Z,101431.25
2023-02-11T09:50:37.506Z,101424.06
2023-02-11T09:53:11.115Z,101431.97
2023-02-11T09:55:42.837Z,101431.94
2023-02-11T09:58:15.421Z,101432.81
2023-02-11T10:00:49.629Z,101429.06
2023-02-11T10:03:39.133Z,101427.00
2023-02-11T10:06:20.075Z,101424.34
2023-02-11T10:09:00.495Z,101429.34
2023-02-11T10:11:37.819Z,101425.78
2023-02-11T10:14:22.738Z,101420.03
2023-02-11T10:17:05.374Z,101420.91
2023-02-11T10:19:50.156Z,101421.91
2023-02-11T10:22:23.814Z,101420.41
2023-02-11T10:24:55.173Z,101426.13
2023-02-11T10:27:29.176Z,101421.28
2023-02-11T10:30:03.614Z,101419.28
2023-02-11T10:32:40.422Z,101424.91
2023-02-11T10:35:18.108Z,101417.41
2023-02-11T10:37:46.114Z,101414.75
2023-02-11T10:40:16.249Z,101401.06
2023-02-11T10:42:47.765Z,101402.94
2023-02-11T10:45:20.357Z,101403.00
2023-02-11T10:47:48.326Z,101396.03
2023-02-11T10:50:24.391Z,101400.66
2023-02-11T10:52:52.630Z,101401.81
2023-02-11T10:55:22.021Z,101399.91
2023-02-11T10:57:57.170Z,101407.59
2023-02-11T11:00:38.838Z,101407.84
2023-02-11T11:03:17.685Z,101393.13
2023-02-11T11:05:51.550Z,101401.38
2023-02-11T11:08:20.222Z,101394.28
2023-02-11T11:10:49.922Z,101386.31
2023-02-11T11:13:30.442Z,101382.13
2023-02-11T11:16:20.344Z,101380.44
2023-02-11T11:18:49.856Z,101375.34
2023-02-11T11:21:22.869Z,101366.69
2023-02-11T11:23:55.352Z,101358.28
2023-02-11T11:26:24.126Z,101354.81
2023-02-11T11:28:56.537Z,101355.03
2023-02-11T11:31:27.865Z,101352.78
2023-02-11T11:33:59.170Z,101343.25
2023-02-11T11:36:36.557Z,101340.25
2023-02-11T11:39:20.485Z,101334.13
2023-02-11T11:41:59.058Z,101333.88
2023-02-11T11:44:32.582Z,101325.56
2023-02-11T11:47:26.559Z,101317.59
2023-02-11T11:50:13.115Z,101312.59
2023-02-11T11:52:47.690Z,101312.69
2023-02-11T11:55:20.656Z,101314.41
2023-02-11T11:57:49.304Z,101309.66
2023-02-11T12:00:22.169Z,101314.59
2023-02-11T12:03:26.417Z,101297.84
2023-02-11T12:06:13.805Z,101293.53
2023-02-11T12:08:53.579Z,101290.84
2023-02-11T12:11:27.225Z,101272.41
2023-02-11T12:14:07.324Z,101280.41
2023-02-11T12:16:45.773Z,101273.44
2023-02-11T12:19:52.679Z,101269.44
2023-02-11T12:22:34.335Z,101267.63
2023-02-11T12:25:24.039Z,101267.16
2023-02-11T12:27:58.870Z,101270.56
2023-02-11T12:30:49.804Z,101264.25
2023-02-11T12:33:32.692Z,101264.94
2023-02-11T12:36:05.521Z,101263.53
2023-02-11T12:38:47.219Z,101253.53
2023-02-11T12:41:53.507Z,101248.44
2023-02-11T12:44:32.290Z,101249.44
2023-02-11T12:47:10.250Z,101248.81
2023-02-11T12:50:03.010Z,101239.31
2023-02-11T12:52:45.893Z,101238.66
2023-02-11T12:55:21.796Z,101226.34
2023-02-11T12:57:52.225Z,101223.19
2023-02-11T13:00:24.775Z,101224.63
2023-02-11T14:50:59.429Z,101120.38
2023-02-11T14:53:29.693Z,101125.13
2023-02-11T14:55:57.730Z,101130.25
2023-02-11T14:58:27.708Z,101124.31
2023-02-11T15:00:58.953Z,101102.69
2023-02-11T15:03:33.244Z,101118.53
2023-02-11T15:06:06.449Z,101120.09
2023-02-11T15:08:38.263Z,101117.81
2023-02-11T15:11:12.637Z,101116.25
2023-02-11T15:13:47.464Z,101117.97
2023-02-11T15:16:19.821Z,101118.09
2023-02-11T15:18:51.840Z,101118.94
2023-02-11T15:21:26.708Z,101115.13
2023-02-11T15:24:00.413Z,101111.34
2023-02-11T15:26:28.744Z,101115.41
2023-02-11T15:28:56.803Z,101109.06
2023-02-11T15:31:27.826Z,101107.50
2023-02-11T15:33:56.017Z,101107.78
2023-02-11T15:36:33.146Z,101108.78
2023-02-11T15:39:20.354Z,101114.00
2023-02-11T15:41:48.370Z,101110.03
2023-02-11T15:44:29.212Z,101114.56
2023-02-11T15:46:57.670Z,101121.19
2023-02-11T15:49:26.249Z,101118.66
2023-02-11T15:51:58.908Z,101112.84
2023-02-11T15:54:30.056Z,101116.09
2023-02-11T15:57:03.464Z,101116.50
2023-02-11T15:59:35.426Z,101117.19
2023-02-11T16:02:09.647Z,101116.94
2023-02-11T16:04:38.582Z,101115.50
2023-02-11T16:07:08.040Z,101112.13
2023-02-11T16:09:37.696Z,101118.28
2023-02-11T16:12:23.810Z,101112.22
2023-02-11T16:14:51.793Z,101123.03
2023-02-11T16:17:27.071Z,101112.59
2023-02-11T16:19:55.973Z,101108.03
2023-02-11T16:22:28.162Z,101110.28
2023-02-11T16:24:58.737Z,101106.41
2023-02-11T16:27:30.502Z,101111.34
2023-02-11T16:29:59.526Z,101111.03
2023-02-11T16:32:29.452Z,101113.56
2023-02-11T16:35:00.867Z,101107.03
2023-02-11T16:37:30.551Z,101114.81
2023-02-11T16:39:58.642Z,101115.75
2023-02-11T16:42:26.933Z,101111.84
2023-02-11T16:44:55.139Z,101121.56
2023-02-11T16:47:26.023Z,101117.31
2023-02-11T16:49:55.135Z,101118.75
2023-02-11T16:52:23.585Z,101115.44
2023-02-11T16:54:53.029Z,101129.53
2023-02-11T16:57:23.281Z,101129.41
2023-02-11T16:59:52.260Z,101136.03
2023-02-11T17:02:24.380Z,101136.28
2023-02-11T17:04:54.501Z,101127.84
2023-02-11T17:07:23.183Z,101143.69
2023-02-11T17:09:53.068Z,101143.66
2023-02-11T17:12:21.585Z,101137.78
2023-02-11T17:14:49.562Z,101140.09
2023-02-11T17:17:17.573Z,101144.72
2023-02-11T17:19:47.836Z,101144.03
2023-02-11T17:22:15.981Z,101144.88
2023-02-11T17:24:43.933Z,101152.97
2023-02-11T17:27:13.958Z,101159.38
2023-02-11T17:29:42.116Z,101155.25
2023-02-11T17:32:10.166Z,101149.28
2023-02-11T17:34:39.242Z,101160.84
2023-02-11T17:37:09.354Z,101156.47
2023-02-11T17:39:37.888Z,101163.91
2023-02-11T17:42:07.252Z,101165.88
2023-02-11T17:44:37.341Z,101169.81
2023-02-11T17:47:05.449Z,101176.13
2023-02-11T17:49:33.545Z,101179.44
2023-02-11T17:52:01.509Z,101184.84
2023-02-11T17:54:29.682Z,101188.16
2023-02-11T17:57:00.075Z,101185.50
2023-02-11T17:59:31.717Z,101190.38
2023-02-11T18:02:01.057Z,101191.03
2023-02-11T18:04:29.342Z,101200.75
2023-02-11T18:06:57.679Z,101199.94
2023-02-11T18:09:26.153Z,101204.94
2023-02-11T18:11:54.169Z,101209.50
2023-02-11T18:14:23.225Z,101197.91
2023-02-11T18:16:51.994Z,101202.34
2023-02-11T18:19:22.199Z,101206.38
2023-02-11T18:21:51.069Z,101212.75
2023-02-11T18:24:19.755Z,101212.38
2023-02-11T18:26:47.773Z,101226.19
2023-02-11T18:29:15.774Z,101219.88
2023-02-11T18:31:43.769Z,101224.63
2023-02-11T18:34:12.432Z,101220.78
2023-02-11T18:36:41.808Z,101224.09
2023-02-11T18:39:10.256Z,101220.97
2023-02-11T18:41:40.104Z,101225.63
2023-02-11T18:44:08.330Z,101221.94
2023-02-11T18:46:36.374Z,101234.97
2023-02-11T18:49:04.487Z,101236.31
2023-02-11T18:51:32.670Z,101233.19
2023-02-11T18:54:02.276Z,101226.63
2023-02-11T18:56:30.424Z,101222.66
2023-02-11T18:59:01.307Z,101230.28
2023-02-11T19:01:31.099Z,101228.84
2023-02-11T19:04:02.863Z,101235.19
2023-02-11T19:06:32.972Z,101227.59
2023-02-11T19:09:04.966Z,101225.91
2023-02-11T19:11:50.289Z,101231.97
2023-02-11T19:14:21.184Z,101222.38
2023-02-11T19:16:50.700Z,101230.63
2023-02-11T19:19:20.085Z,101230.63
2023-02-11T19:21:48.859Z,101229.09
2023-02-11T19:24:20.046Z,101227.16
2023-02-11T19:26:49.737Z,101227.63
2023-02-11T19:29:18.384Z,101235.69
2023-02-11T19:31:46.834Z,101229.72
2023-02-11T19:34:16.526Z,101231.97
2023-02-11T19:36:44.963Z,101235.72
2023-02-11T19:39:13.350Z,101228.22
2023-02-11T19:41:42.854Z,101222.25
2023-02-11T19:44:11.135Z,101233.03
2023-02-11T19:46:40.957Z,101227.06
2023-02-11T19:49:09.986Z,101236.88
2023-02-11T19:51:39.319Z,101238.03
2023-02-11T19:54:08.231Z,101235.31
2023-02-11T19:56:38.006Z,101239.69
2023-02-11T19:59:09.095Z,101226.72
2023-02-11T20:01:38.024Z,101224.81
2023-02-11T20:04:06.408Z,101226.28
2023-02-11T20:06:35.560Z,101223.63
2023-02-11T20:09:06.572Z,101223.72
2023-02-11T20:11:35.781Z,101228.41
2023-02-11T20:14:04.516Z,101223.38
2023-02-11T20:16:47.430Z,101224.41
2023-02-11T20:19:18.508Z,101225.25
2023-02-11T20:21:48.176Z,101235.38
2023-02-11T20:24:16.401Z,101235.72
2023-02-11T20:26:46.528Z,101239.63
2023-02-11T20:29:15.318Z,101230.59
2023-02-11T20:31:44.903Z,101235.00
2023-02-11T20:34:13.093Z,101242.16
2023-02-11T20:36:42.123Z,101227.41
2023-02-11T20:39:17.187Z,101242.69
2023-02-11T20:41:46.572Z,101238.81
2023-02-11T20:44:14.811Z,101240.38
2023-02-11T20:46:47.144Z,101234.59
2023-02-11T20:49:16.735Z,101236.91
2023-02-11T20:51:45.078Z,101235.09
2023-02-11T20:54:14.392Z,101231.19
2023-02-11T20:56:43.064Z,101230.88
2023-02-11T20:59:14.303Z,101225.84
2023-02-11T21:01:46.365Z,101223.72
2023-02-11T21:04:16.517Z,101229.25
2023-02-11T21:06:47.323Z,101232.91
2023-02-11T21:09:17.628Z,101227.16
2023-02-11T21:11:45.565Z,101225.31
2023-02-11T21:14:14.227Z,101228.50
2023-02-11T21:16:42.701Z,101227.88
2023-02-11T21:19:12.714Z,101225.53
2023-02-11T21:21:41.235Z,101222.03
2023-02-11T21:24:11.570Z,101222.88
2023-02-11T21:26:40.027Z,101228.94
2023-02-11T21:29:09.006Z,101229.09
2023-02-11T21:31:37.924Z,101226.38
2023-02-11T21:34:06.647Z,101225.91
2023-02-11T21:36:36.163Z,101222.25
2023-02-11T21:39:05.635Z,101236.41
2023-02-11T21:41:33.920Z,101228.47
2023-02-11T21:44:02.011Z,101229.50
2023-02-11T21:46:30.868Z,101231.13
2023-02-11T21:49:00.437Z,101235.34
2023-02-11T21:51:28.717Z,101233.06
2023-02-11T21:53:59.805Z,101235.75
2023-02-11T21:56:28.518Z,101238.38
2023-02-11T21:58:58.444Z,101237.00
2023-02-11T22:01:28.718Z,101238.53
2023-02-11T22:03:57.210Z,101242.44
2023-02-11T22:06:27.857Z,101245.06
2023-02-11T22:08:57.331Z,101240.72
2023-02-11T22:11:25.349Z,101240.88
2023-02-11T22:13:56.465Z,101247.50
2023-02-11T22:16:25.152Z,101243.69
2023-02-11T22:18:53.315Z,101239.91
2023-02-11T22:21:23.123Z,101243.47
2023-02-11T22:23:52.189Z,101242.84
2023-02-11T22:26:23.449Z,101240.28
2023-02-11T22:28:52.474Z,101249.19
2023-02-11T22:31:22.401Z,101246.78
2023-02-11T22:33:51.031Z,101240.66
2023-02-11T22:36:21.354Z,101245.06
2023-02-11T22:38:49.820Z,101248.13
2023-02-11T22:41:18.518Z,101257.25
2023-02-11T22:43:48.423Z,101244.22
2023-02-11T22:46:18.968Z,101239.94
2023-02-11T22:48:47.991Z,101248.28
2023-02-11T22:51:19.484Z,101248.66
2023-02-11T22:53:50.949Z,101244.16
2023-02-11T22:56:19.439Z,101236.09
2023-02-11T22:58:49.955Z,101238.88
2023-02-11T23:01:18.864Z,101239.66
2023-02-11T23:03:46.946Z,101241.72
2023-02-11T23:06:15.072Z,101245.38
2023-02-11T23:08:43.373Z,101251.81
2023-02-11T23:11:14.297Z,101251.31
2023-02-11T23:13:43.038Z,101260.88
2023-02-11T23:16:14.355Z,101265.50
2023-02-11T23:18:44.155Z,101256.94
2023-02-11T23:21:16.065Z,101264.94
2023-02-11T23:23:45.048Z,101251.22
2023-02-11T23:26:14.493Z,101247.22
2023-02-11T23:28:46.094Z,101243.03
2023-02-11T23:31:18.031Z,101240.09
2023-02-11T23:33:47.166Z,101255.88
2023-02-11T23:36:15.851Z,101252.16
2023-02-11T23:38:44.514Z,101253.88
2023-02-11T23:41:12.930Z,101251.31
2023-02-11T23:43:41.112Z,101247.88
2023-02-11T23:46:09.946Z,101253.16
2023-02-11T23:48:40.528Z,101246.16
2023-02-11T23:51:09.730Z,101252.03
2023-02-11T23:53:38.203Z,101252.03
2023-02-11T23:56:08.605Z,101251.78
2023-02-11T23:58:36.921Z,101250.66
